Etusivu
METAR-TAF:

METAR-TAF

Lentoasemat :

Rodrigues, Mauritius

Leveyspiiri: 19-41S, Pituuspiiri: 063-25E, korkeus merenpinnasta: 58 m

Tämänhetkinen sää

Tämä raportti tehtiin 4 tuntia ja 50 minuuttia sitten, kello 18.00 UTC
Tuuli 7 kn idästä
Lämpötila 25°C
Kosteus 89%
Ilmanpaine 1016 hPa
Näkyvyys 10 km tai enemmän
Muutamia pilviä 1800 ft:n korkeudessa
Hajonneita pilviä 10000 ft:n korkeudessa

METAR: FIMR 111800Z 10007KT 9999 FEW018 BKN100 25/23 Q1016

Aika: 02:50 (22:50 UTC)

Sääennuste

Tämä raportti tehtiin 5 tuntia ja 20 minuuttia sitten, kello 17.30 UTC
Ennuste voimassa 11. päivästä klo 18 UTC - 12. päivään klo 12 UTC
Tuuli 5 kn idästä/koillisesta
Näkyvyys 10 km tai enemmän
Muutamia pilviä 1900 ft:n korkeudessa

TAF: FIMR 111730Z 1118/1212 07005KT 9999 FEW019

Säähavainnot ja -ennusteet yli 4000 lentoasemalta (METAR- ja TAF-raportit).

Käytössä olevat sääasemat on merkitty karttaan keltaisilla ja punaisilla pisteillä.

Aseta hiiri pisteen päälle nähdäksesi sääaseman nimen.

Klikkaa sitten nähdäksesi säähavainnot ja -ennusteet.

Kartan vaihtaminen: klikkaa mustalla rastilla varustettuja vihreitä pisteitä, niin voit zoomata sisään; viivalla varustettua vihreää pistettä, niin voit zoomata ulos tai vihreitä nuolia, niin pääset viereisille kartoille.


METAR-TAF: